createdAt,value
2016-10-25T00:00:56.422Z,1010.04
2016-10-25T00:01:56.404Z,1010.06
2016-10-25T00:02:56.390Z,1010.06
2016-10-25T00:03:56.374Z,1010.02
2016-10-25T00:04:56.357Z,1010
2016-10-25T00:05:56.340Z,1009.96
2016-10-25T00:06:56.325Z,1009.87
2016-10-25T00:07:56.307Z,1009.96
2016-10-25T00:08:56.292Z,1009.94
2016-10-25T00:09:56.274Z,1009.95
2016-10-25T00:10:56.259Z,1009.94
2016-10-25T00:11:56.241Z,1009.98
2016-10-25T00:12:56.227Z,1009.97
2016-10-25T00:13:56.208Z,1009.92
2016-10-25T00:14:56.195Z,1009.91
2016-10-25T00:15:56.175Z,1009.91
2016-10-25T00:16:56.162Z,1009.9
2016-10-25T00:17:56.143Z,1009.94
2016-10-25T00:18:56.128Z,1009.92
2016-10-25T00:19:56.113Z,1009.95
2016-10-25T00:20:56.099Z,1009.96
2016-10-25T00:21:56.080Z,1009.94
2016-10-25T00:22:56.064Z,1009.92
2016-10-25T00:23:56.046Z,1009.9
2016-10-25T00:24:56.035Z,1009.93
2016-10-25T00:25:56.015Z,1009.91
2016-10-25T00:26:55.996Z,1009.99
2016-10-25T00:27:55.983Z,1010.03
2016-10-25T00:28:55.965Z,1010.02
2016-10-25T00:29:55.946Z,1010.12
2016-10-25T00:30:55.933Z,1010.13
2016-10-25T00:31:55.920Z,1010.11
2016-10-25T00:32:55.899Z,1010.2
2016-10-25T00:33:55.885Z,1010.13
2016-10-25T00:34:55.866Z,1010.11
2016-10-25T00:35:55.853Z,1010.13
2016-10-25T00:36:55.836Z,1010.15
2016-10-25T00:37:55.820Z,1010.11
2016-10-25T00:38:55.801Z,1010.12
2016-10-25T00:39:55.788Z,1010.1
2016-10-25T00:40:55.771Z,1010.09
2016-10-25T00:41:55.754Z,1010.13
2016-10-25T00:42:55.739Z,1010.11
2016-10-25T00:43:55.723Z,1010.12
2016-10-25T00:44:55.710Z,1010.12
2016-10-25T00:45:55.689Z,1010.17
2016-10-25T00:46:55.673Z,1010.16
2016-10-25T00:47:55.657Z,1010.17
2016-10-25T00:48:55.641Z,1010.17
2016-10-25T00:49:55.624Z,1010.18
2016-10-25T00:50:55.607Z,1010.19
2016-10-25T00:51:55.592Z,1010.17
2016-10-25T00:52:55.574Z,1010.2
2016-10-25T00:53:55.560Z,1010.26
2016-10-25T00:54:55.542Z,1010.26
2016-10-25T00:55:55.524Z,1010.26
2016-10-25T00:56:55.509Z,1010.29
2016-10-25T00:57:55.491Z,1010.28
2016-10-25T00:58:55.475Z,1010.29
2016-10-25T00:59:55.460Z,1010.32
2016-10-25T01:00:55.453Z,1010.32
2016-10-25T01:01:55.425Z,1010.3
2016-10-25T01:02:55.411Z,1010.29
2016-10-25T01:03:55.395Z,1010.26
2016-10-25T01:04:55.381Z,1010.26
2016-10-25T01:05:55.362Z,1010.23
2016-10-25T01:06:55.345Z,1010.27
2016-10-25T01:07:55.328Z,1010.27
2016-10-25T01:08:55.317Z,1010.32
2016-10-25T01:09:55.298Z,1010.36
2016-10-25T01:10:55.280Z,1010.42
2016-10-25T01:11:55.261Z,1010.43
2016-10-25T01:12:55.246Z,1010.45
2016-10-25T01:13:55.231Z,1010.44
2016-10-25T01:14:55.212Z,1010.45
2016-10-25T01:15:55.198Z,1010.43
2016-10-25T01:16:55.179Z,1010.5
2016-10-25T01:17:55.167Z,1010.47
2016-10-25T01:18:55.149Z,1010.49
2016-10-25T01:19:55.130Z,1010.48
2016-10-25T01:20:55.114Z,1010.47
2016-10-25T01:21:55.099Z,1010.48
2016-10-25T01:22:55.082Z,1010.55
2016-10-25T01:23:55.067Z,1010.44
2016-10-25T01:24:55.049Z,1010.47
2016-10-25T01:25:55.032Z,1010.44
2016-10-25T01:26:55.017Z,1010.44
2016-10-25T01:27:55.001Z,1010.47
2016-10-25T01:28:54.988Z,1010.44
2016-10-25T01:29:54.967Z,1010.45
2016-10-25T01:30:54.953Z,1010.47
2016-10-25T01:31:54.933Z,1010.47
2016-10-25T01:32:54.918Z,1010.48
2016-10-25T01:33:54.903Z,1010.51
2016-10-25T01:34:54.885Z,1010.49
2016-10-25T01:35:54.873Z,1010.52
2016-10-25T01:36:54.853Z,1010.53
2016-10-25T01:37:54.838Z,1010.57
2016-10-25T01:38:54.820Z,1010.66
2016-10-25T01:39:54.803Z,1010.68
2016-10-25T01:40:54.786Z,1010.74
2016-10-25T01:41:54.771Z,1010.76
2016-10-25T01:42:54.754Z,1010.83
2016-10-25T01:43:54.736Z,1010.82
2016-10-25T01:44:54.725Z,1010.86
2016-10-25T01:45:54.706Z,1010.82
2016-10-25T01:46:54.688Z,1010.88
2016-10-25T01:47:54.671Z,1010.92
2016-10-25T01:48:54.659Z,1010.86
2016-10-25T01:49:54.639Z,1010.86
2016-10-25T01:50:54.622Z,1010.83
2016-10-25T01:51:54.606Z,1010.9
2016-10-25T01:52:54.590Z,1010.93
2016-10-25T01:53:54.571Z,1010.9
2016-10-25T01:54:54.555Z,1010.88
2016-10-25T01:55:54.538Z,1010.95
2016-10-25T01:56:54.524Z,1010.92
2016-10-25T01:57:54.510Z,1010.94
2016-10-25T01:58:54.490Z,1010.92
2016-10-25T01:59:54.475Z,1010.94
2016-10-25T02:00:54.460Z,1010.91
2016-10-25T02:01:54.440Z,1010.95
2016-10-25T02:02:54.423Z,1010.94
2016-10-25T02:03:54.410Z,1010.94
2016-10-25T02:04:54.389Z,1010.94
2016-10-25T02:05:54.375Z,1010.94
2016-10-25T02:06:54.360Z,1010.99
2016-10-25T02:07:54.343Z,1011.04
2016-10-25T02:08:54.330Z,1011.05
2016-10-25T02:09:54.308Z,1011.08
2016-10-25T02:10:54.293Z,1011.07
2016-10-25T02:11:54.275Z,1011.01
2016-10-25T02:12:54.261Z,1011.05
2016-10-25T02:13:54.246Z,1011.03
2016-10-25T02:14:54.228Z,1011.05
2016-10-25T02:15:54.211Z,1011.07
2016-10-25T02:16:54.194Z,1011.1
2016-10-25T02:17:54.180Z,1011.09
2016-10-25T02:18:54.161Z,1011.11
2016-10-25T02:19:54.144Z,1011.07
2016-10-25T02:20:54.129Z,1011.08
2016-10-25T02:21:54.110Z,1011.11
2016-10-25T02:22:54.096Z,1011.07
2016-10-25T02:23:54.080Z,1011.11
2016-10-25T02:24:54.066Z,1011.09
2016-10-25T02:25:54.047Z,1011.16
2016-10-25T02:26:54.031Z,1011.2
2016-10-25T02:27:54.013Z,1011.17
2016-10-25T02:28:54.001Z,1011.18
2016-10-25T02:29:53.982Z,1011.21
2016-10-25T02:30:53.963Z,1011.23
2016-10-25T02:31:53.946Z,1011.28
2016-10-25T02:32:53.931Z,1011.22
2016-10-25T02:33:53.913Z,1011.23
2016-10-25T02:34:53.896Z,1011.22
2016-10-25T02:35:53.881Z,1011.3
2016-10-25T02:36:53.864Z,1011.27
2016-10-25T02:37:53.847Z,1011.32
2016-10-25T02:38:53.832Z,1011.25
2016-10-25T02:39:53.814Z,1011.3
2016-10-25T02:40:53.798Z,1011.28
2016-10-25T02:41:53.780Z,1011.3
2016-10-25T02:42:53.766Z,1011.3
2016-10-25T02:43:53.749Z,1011.26
2016-10-25T02:44:53.731Z,1011.32
2016-10-25T02:45:53.715Z,1011.31
2016-10-25T02:46:53.702Z,1011.28
2016-10-25T02:47:53.683Z,1011.35
2016-10-25T02:48:53.666Z,1011.32
2016-10-25T02:49:53.648Z,1011.32
2016-10-25T02:50:53.633Z,1011.32
2016-10-25T02:51:53.614Z,1011.3
2016-10-25T02:52:53.598Z,1011.35
2016-10-25T02:53:53.581Z,1011.42
2016-10-25T02:54:53.565Z,1011.42
2016-10-25T02:55:53.552Z,1011.41
2016-10-25T02:56:53.533Z,1011.44
2016-10-25T02:57:53.516Z,1011.35
2016-10-25T02:58:53.500Z,1011.4
2016-10-25T02:59:53.483Z,1011.37
2016-10-25T03:00:53.466Z,1011.38
2016-10-25T03:01:53.446Z,1011.38
2016-10-25T03:02:53.437Z,1011.4
2016-10-25T03:03:53.417Z,1011.5
2016-10-25T03:04:53.398Z,1011.48
2016-10-25T03:05:53.381Z,1011.46
2016-10-25T03:06:53.365Z,1011.46
2016-10-25T03:07:53.346Z,1011.42
2016-10-25T03:08:53.333Z,1011.49
2016-10-25T03:09:53.314Z,1011.46
2016-10-25T03:10:53.296Z,1011.51
2016-10-25T03:11:53.285Z,1011.5
2016-10-25T03:12:53.266Z,1011.48
2016-10-25T03:13:53.248Z,1011.46
2016-10-25T03:14:53.231Z,1011.48
2016-10-25T03:15:53.216Z,1011.51
2016-10-25T03:16:53.200Z,1011.55
2016-10-25T03:17:53.182Z,1011.52
2016-10-25T03:18:53.164Z,1011.58
2016-10-25T03:19:53.150Z,1011.57
2016-10-25T03:20:53.135Z,1011.56
2016-10-25T03:21:53.114Z,1011.59
2016-10-25T03:22:53.099Z,1011.58
2016-10-25T03:23:53.081Z,1011.62
2016-10-25T03:24:53.066Z,1011.63
2016-10-25T03:25:53.049Z,1011.59
2016-10-25T03:26:53.030Z,1011.57
2016-10-25T03:27:53.017Z,1011.57
2016-10-25T03:28:52.999Z,1011.6
2016-10-25T03:29:52.986Z,1011.63
2016-10-25T03:30:52.965Z,1011.67
2016-10-25T03:31:52.952Z,1011.73
2016-10-25T03:32:52.932Z,1011.68
2016-10-25T03:33:52.915Z,1011.73
2016-10-25T03:34:52.900Z,1011.75
2016-10-25T03:35:52.882Z,1011.74
2016-10-25T03:36:52.866Z,1011.76
2016-10-25T03:37:52.850Z,1011.75
2016-10-25T03:38:52.837Z,1011.77
2016-10-25T03:39:52.815Z,1011.76
2016-10-25T03:40:52.799Z,1011.82
2016-10-25T03:41:52.784Z,1011.86
2016-10-25T03:42:52.764Z,1011.84
2016-10-25T03:43:52.749Z,1011.85
2016-10-25T03:44:52.730Z,1011.87
2016-10-25T03:45:52.717Z,1011.96
2016-10-25T03:46:52.700Z,1011.92
2016-10-25T03:47:52.688Z,1011.95
2016-10-25T03:48:52.667Z,1011.91
2016-10-25T03:49:52.656Z,1011.94
2016-10-25T03:50:52.634Z,1011.94
2016-10-25T03:51:52.617Z,1012
2016-10-25T03:52:52.600Z,1011.99
2016-10-25T03:53:52.587Z,1011.98
2016-10-25T03:54:52.566Z,1011.97
2016-10-25T03:55:52.549Z,1011.95
2016-10-25T03:56:52.539Z,1011.95
2016-10-25T03:57:52.516Z,1011.92
2016-10-25T03:58:52.501Z,1011.96
2016-10-25T03:59:52.482Z,1011.97
2016-10-25T04:00:52.466Z,1011.94
2016-10-25T04:01:52.451Z,1011.92
2016-10-25T04:02:52.434Z,1011.9
2016-10-25T04:03:52.417Z,1011.86
2016-10-25T04:04:52.401Z,1011.9
2016-10-25T04:05:52.384Z,1011.87
2016-10-25T04:06:52.365Z,1011.91
2016-10-25T04:07:52.351Z,1011.9
2016-10-25T04:08:52.335Z,1011.95
2016-10-25T04:09:52.317Z,1011.9
2016-10-25T04:10:52.301Z,1011.92
2016-10-25T04:11:52.285Z,1011.93
2016-10-25T04:12:52.268Z,1011.92
2016-10-25T04:13:52.250Z,1011.92
2016-10-25T04:14:52.237Z,1011.94
2016-10-25T04:15:52.216Z,1011.95
2016-10-25T04:16:52.199Z,1011.94
2016-10-25T04:17:52.185Z,1012
2016-10-25T04:18:52.168Z,1011.98
2016-10-25T04:19:52.151Z,1011.93
2016-10-25T04:20:52.132Z,1011.93
2016-10-25T04:21:52.118Z,1011.97
2016-10-25T04:22:52.104Z,1011.98
2016-10-25T04:23:52.086Z,1011.97
2016-10-25T04:24:52.069Z,1011.98
2016-10-25T04:25:52.052Z,1011.98
2016-10-25T04:26:52.037Z,1011.98
2016-10-25T04:27:52.019Z,1011.94
2016-10-25T04:28:52.003Z,1011.98
2016-10-25T04:29:51.987Z,1011.93
2016-10-25T04:30:51.972Z,1011.93
2016-10-25T04:31:51.951Z,1012.01
2016-10-25T04:32:51.940Z,1011.95
2016-10-25T04:33:51.918Z,1011.94
2016-10-25T04:34:51.903Z,1012
2016-10-25T04:35:51.886Z,1012.02
2016-10-25T04:36:51.871Z,1012.01
2016-10-25T04:37:51.856Z,1011.99
2016-10-25T04:38:51.838Z,1011.93
2016-10-25T04:39:51.824Z,1011.92
2016-10-25T04:40:51.804Z,1011.88
2016-10-25T04:41:51.791Z,1011.92
2016-10-25T04:42:51.771Z,1011.93
2016-10-25T04:43:51.761Z,1011.95
2016-10-25T04:44:51.739Z,1012.01
2016-10-25T04:45:51.722Z,1012
2016-10-25T04:46:51.705Z,1012.1
2016-10-25T04:47:51.690Z,1012.17
2016-10-25T04:48:51.683Z,1012.2
2016-10-25T04:49:51.657Z,1012.26
2016-10-25T04:50:51.642Z,1012.3
2016-10-25T04:51:51.625Z,1012.35
2016-10-25T04:52:51.614Z,1012.38
2016-10-25T04:53:51.591Z,1012.41
2016-10-25T04:54:51.575Z,1012.45
2016-10-25T04:55:51.560Z,1012.42
2016-10-25T04:56:51.543Z,1012.46
2016-10-25T04:57:51.526Z,1012.45
2016-10-25T04:58:51.511Z,1012.48
2016-10-25T04:59:51.495Z,1012.51
2016-10-25T05:00:51.478Z,1012.55
2016-10-25T05:01:51.461Z,1012.58
2016-10-25T05:02:51.446Z,1012.56
2016-10-25T05:03:51.429Z,1012.6
2016-10-25T05:04:51.412Z,1012.6
2016-10-25T05:05:51.398Z,1012.69
2016-10-25T05:06:51.384Z,1012.64
2016-10-25T05:07:51.367Z,1012.65
2016-10-25T05:08:51.349Z,1012.68
2016-10-25T05:09:51.332Z,1012.69
2016-10-25T05:10:51.314Z,1012.72
2016-10-25T05:11:51.297Z,1012.74
2016-10-25T05:12:51.283Z,1012.75
2016-10-25T05:13:51.267Z,1012.78
2016-10-25T05:14:51.254Z,1012.78
2016-10-25T05:15:51.236Z,1012.78
2016-10-25T05:16:51.218Z,1012.79
2016-10-25T05:17:51.202Z,1012.8
2016-10-25T05:18:51.185Z,1012.79
2016-10-25T05:19:51.170Z,1012.77
2016-10-25T05:20:51.154Z,1012.75
2016-10-25T05:21:51.138Z,1012.74
2016-10-25T05:22:51.123Z,1012.76
2016-10-25T05:23:51.107Z,1012.73
2016-10-25T05:24:51.090Z,1012.7
2016-10-25T05:25:51.072Z,1012.73
2016-10-25T05:26:51.057Z,1012.75
2016-10-25T05:27:51.044Z,1012.71
2016-10-25T05:28:51.025Z,1012.74
2016-10-25T05:29:51.008Z,1012.75
2016-10-25T05:30:50.994Z,1012.79
2016-10-25T05:31:50.975Z,1012.79
2016-10-25T05:32:50.958Z,1012.88
2016-10-25T05:33:50.945Z,1012.87
2016-10-25T05:34:50.934Z,1012.9
2016-10-25T05:35:50.913Z,1012.92
2016-10-25T05:36:50.897Z,1012.97
2016-10-25T05:37:50.880Z,1012.99
2016-10-25T05:38:50.863Z,1013.05
2016-10-25T05:39:50.847Z,1013.05
2016-10-25T05:40:50.830Z,1013.08
2016-10-25T05:41:50.815Z,1013.13
2016-10-25T05:42:50.804Z,1013.2
2016-10-25T05:43:50.783Z,1013.19
2016-10-25T05:44:50.767Z,1013.22
2016-10-25T05:45:50.749Z,1013.24
2016-10-25T05:46:50.735Z,1013.28
2016-10-25T05:47:50.720Z,1013.32
2016-10-25T05:48:50.703Z,1013.32
2016-10-25T05:49:50.686Z,1013.29
2016-10-25T05:50:50.671Z,1013.34
2016-10-25T05:51:50.657Z,1013.39
2016-10-25T05:52:50.638Z,1013.37
2016-10-25T05:53:50.623Z,1013.36
2016-10-25T05:54:50.603Z,1013.36
2016-10-25T05:55:50.591Z,1013.39
2016-10-25T05:56:50.571Z,1013.41
2016-10-25T05:57:50.560Z,1013.43
2016-10-25T05:58:50.542Z,1013.45
2016-10-25T05:59:50.525Z,1013.47
2016-10-25T06:00:50.511Z,1013.51
2016-10-25T06:01:50.495Z,1013.53
2016-10-25T06:02:50.477Z,1013.59
2016-10-25T06:03:50.460Z,1013.62
2016-10-25T06:04:50.444Z,1013.65
2016-10-25T06:05:50.428Z,1013.66
2016-10-25T06:06:50.410Z,1013.67
2016-10-25T06:07:50.395Z,1013.68
2016-10-25T06:08:50.380Z,1013.72
2016-10-25T06:09:50.363Z,1013.74
2016-10-25T06:10:50.348Z,1013.78
2016-10-25T06:11:50.331Z,1013.76
2016-10-25T06:12:50.316Z,1013.78
2016-10-25T06:13:50.297Z,1013.78
2016-10-25T06:14:50.283Z,1013.8
2016-10-25T06:15:50.268Z,1013.86
2016-10-25T06:16:50.251Z,1013.8
2016-10-25T06:17:50.236Z,1013.85
2016-10-25T06:18:50.218Z,1013.76
2016-10-25T06:19:50.203Z,1013.82
2016-10-25T06:20:50.186Z,1013.85
2016-10-25T06:21:50.169Z,1013.85
2016-10-25T06:22:50.152Z,1013.89
2016-10-25T06:23:50.143Z,1013.93
2016-10-25T06:24:50.123Z,1013.97
2016-10-25T06:25:50.106Z,1013.98
2016-10-25T06:26:50.093Z,1014
2016-10-25T06:27:50.071Z,1014.09
2016-10-25T06:28:50.058Z,1014.1
2016-10-25T06:29:50.039Z,1014.15
2016-10-25T06:30:50.026Z,1014.15
2016-10-25T06:31:50.009Z,1014.11
2016-10-25T06:32:49.997Z,1014.17
2016-10-25T06:33:49.980Z,1014.18
2016-10-25T06:34:49.960Z,1014.17
2016-10-25T06:35:49.945Z,1014.18
2016-10-25T06:36:49.929Z,1014.17
2016-10-25T06:37:49.913Z,1014.19
2016-10-25T06:38:49.896Z,1014.17
2016-10-25T06:39:49.880Z,1014.18
2016-10-25T06:40:49.864Z,1014.2
2016-10-25T06:41:49.849Z,1014.2
2016-10-25T06:42:49.831Z,1014.22
2016-10-25T06:43:49.818Z,1014.24
2016-10-25T06:44:49.801Z,1014.33
2016-10-25T06:45:49.784Z,1014.32
2016-10-25T06:46:49.766Z,1014.36
2016-10-25T06:47:49.751Z,1014.37
2016-10-25T06:48:49.733Z,1014.43
2016-10-25T06:49:49.718Z,1014.39
2016-10-25T06:50:49.704Z,1014.4
2016-10-25T06:51:49.687Z,1014.44
2016-10-25T06:52:49.669Z,1014.39
2016-10-25T06:53:49.654Z,1014.39
2016-10-25T06:54:49.640Z,1014.39
2016-10-25T06:55:49.620Z,1014.39
2016-10-25T06:56:49.614Z,1014.39
2016-10-25T06:57:49.591Z,1014.41
2016-10-25T06:58:49.576Z,1014.41
2016-10-25T06:59:49.559Z,1014.47
2016-10-25T07:00:49.542Z,1014.52
2016-10-25T07:01:49.527Z,1014.55
2016-10-25T07:02:49.512Z,1014.59
2016-10-25T07:03:49.495Z,1014.61
2016-10-25T07:04:49.477Z,1014.62
2016-10-25T07:05:49.462Z,1014.55
2016-10-25T07:06:49.445Z,1014.55
2016-10-25T07:07:49.430Z,1014.6
2016-10-25T07:08:49.410Z,1014.59
2016-10-25T07:09:49.401Z,1014.59
2016-10-25T07:10:49.380Z,1014.6
2016-10-25T07:11:49.365Z,1014.62
2016-10-25T07:12:49.350Z,1014.63
2016-10-25T07:13:49.337Z,1014.68
2016-10-25T07:14:49.317Z,1014.71
2016-10-25T07:15:49.300Z,1014.73
2016-10-25T07:16:49.283Z,1014.72
2016-10-25T07:17:49.266Z,1014.72
2016-10-25T07:18:49.251Z,1014.76
2016-10-25T07:19:49.237Z,1014.76
2016-10-25T07:20:49.222Z,1014.77
2016-10-25T07:21:49.205Z,1014.77
2016-10-25T07:22:49.187Z,1014.76
2016-10-25T07:23:49.171Z,1014.76
2016-10-25T07:24:49.157Z,1014.79
2016-10-25T07:25:49.136Z,1014.8
2016-10-25T07:26:49.123Z,1014.77
2016-10-25T07:27:49.108Z,1014.8
2016-10-25T07:28:49.091Z,1014.76
2016-10-25T07:29:49.072Z,1014.78
2016-10-25T07:30:49.056Z,1014.77
2016-10-25T07:31:49.043Z,1014.83
2016-10-25T07:32:49.026Z,1014.83
2016-10-25T07:33:49.011Z,1014.87
2016-10-25T07:34:48.993Z,1014.86
2016-10-25T07:35:48.978Z,1014.91
2016-10-25T07:36:48.961Z,1014.9
2016-10-25T07:37:48.945Z,1014.97
2016-10-25T07:38:48.930Z,1015
2016-10-25T07:39:48.913Z,1015.06
2016-10-25T07:40:48.898Z,1015.11
2016-10-25T07:41:48.879Z,1015.12
2016-10-25T07:42:48.863Z,1015.18
2016-10-25T07:43:48.847Z,1015.15
2016-10-25T07:44:48.834Z,1015.16
2016-10-25T07:45:48.816Z,1015.2
2016-10-25T07:46:48.805Z,1015.23
2016-10-25T07:47:48.786Z,1015.18
2016-10-25T07:48:48.769Z,1015.19
2016-10-25T07:49:48.752Z,1015.16
2016-10-25T07:50:48.736Z,1015.22
2016-10-25T07:51:48.717Z,1015.27
2016-10-25T07:52:48.704Z,1015.26
2016-10-25T07:53:48.688Z,1015.38
2016-10-25T07:54:48.671Z,1015.38
2016-10-25T07:55:48.656Z,1015.39
2016-10-25T07:56:48.639Z,1015.44
2016-10-25T07:57:48.624Z,1015.49
2016-10-25T07:58:48.607Z,1015.49
2016-10-25T07:59:48.589Z,1015.46
2016-10-25T08:00:48.574Z,1015.49
2016-10-25T08:01:48.556Z,1015.46
2016-10-25T08:02:48.539Z,1015.5
2016-10-25T08:03:48.524Z,1015.51
2016-10-25T08:04:48.509Z,1015.54
2016-10-25T08:05:48.493Z,1015.54
2016-10-25T08:06:48.475Z,1015.58
2016-10-25T08:07:48.460Z,1015.62
2016-10-25T08:08:48.447Z,1015.63
2016-10-25T08:09:48.428Z,1015.65
2016-10-25T08:10:48.411Z,1015.7
2016-10-25T08:11:48.394Z,1015.7
2016-10-25T08:12:48.380Z,1015.68
2016-10-25T08:13:48.360Z,1015.72
2016-10-25T08:14:48.347Z,1015.72
2016-10-25T08:15:48.330Z,1015.71
2016-10-25T08:16:48.315Z,1015.68
2016-10-25T08:17:48.296Z,1015.7
2016-10-25T08:18:48.282Z,1015.73
2016-10-25T08:19:48.265Z,1015.75
2016-10-25T08:20:48.250Z,1015.73
2016-10-25T08:21:48.236Z,1015.74
2016-10-25T08:22:48.215Z,1015.77
2016-10-25T08:23:48.201Z,1015.79
2016-10-25T08:24:48.183Z,1015.79
2016-10-25T08:25:48.172Z,1015.81
2016-10-25T08:26:48.153Z,1015.84
2016-10-25T08:27:48.135Z,1015.86
2016-10-25T08:28:48.119Z,1015.84
2016-10-25T08:29:48.102Z,1015.84
2016-10-25T08:30:48.091Z,1015.84
2016-10-25T08:31:48.070Z,1015.84
2016-10-25T08:32:48.059Z,1015.81
2016-10-25T08:33:48.038Z,1015.82
2016-10-25T08:34:48.021Z,1015.8
2016-10-25T08:35:48.005Z,1015.81
2016-10-25T08:36:47.990Z,1015.79
2016-10-25T08:37:47.973Z,1015.81
2016-10-25T08:38:47.956Z,1015.81
2016-10-25T08:39:47.941Z,1015.82
2016-10-25T08:40:47.925Z,1015.81
2016-10-25T08:41:47.908Z,1015.84
2016-10-25T08:42:47.893Z,1015.88
2016-10-25T08:43:47.875Z,1015.86
2016-10-25T08:44:47.856Z,1015.88
2016-10-25T08:45:47.843Z,1015.93
2016-10-25T08:46:47.825Z,1015.94
2016-10-25T08:47:47.809Z,1015.89
2016-10-25T08:48:47.792Z,1015.9
2016-10-25T08:49:47.783Z,1015.89
2016-10-25T08:50:47.762Z,1015.87
2016-10-25T08:51:47.744Z,1015.87
2016-10-25T08:52:47.729Z,1015.84
2016-10-25T08:53:47.711Z,1015.84
2016-10-25T08:54:47.697Z,1015.84
2016-10-25T08:55:47.679Z,1015.88
2016-10-25T08:56:47.664Z,1015.89
2016-10-25T08:57:47.648Z,1015.87
2016-10-25T08:58:47.628Z,1015.86
2016-10-25T08:59:47.614Z,1015.85
2016-10-25T09:00:47.597Z,1015.87
2016-10-25T09:01:47.582Z,1015.82
2016-10-25T09:02:47.565Z,1015.82
2016-10-25T09:03:47.548Z,1015.8
2016-10-25T09:04:47.531Z,1015.79
2016-10-25T09:05:47.515Z,1015.79
2016-10-25T09:06:47.500Z,1015.76
2016-10-25T09:07:47.484Z,1015.78
2016-10-25T09:08:47.466Z,1015.82
2016-10-25T09:09:47.451Z,1015.82
2016-10-25T09:10:47.433Z,1015.84
2016-10-25T09:11:47.418Z,1015.9
2016-10-25T09:12:47.401Z,1015.85
2016-10-25T09:13:47.383Z,1015.83
2016-10-25T09:14:47.368Z,1015.87
2016-10-25T09:15:47.350Z,1015.89
2016-10-25T09:16:47.336Z,1015.9
2016-10-25T09:17:47.319Z,1015.94
2016-10-25T09:18:47.304Z,1015.95
2016-10-25T09:19:47.287Z,1015.95
2016-10-25T09:20:47.269Z,1016.01
2016-10-25T09:21:47.254Z,1015.98
2016-10-25T09:22:47.237Z,1015.99
2016-10-25T09:23:47.221Z,1016.05
2016-10-25T09:24:47.204Z,1016.02
2016-10-25T09:25:47.189Z,1015.98
2016-10-25T09:26:47.171Z,1015.98
2016-10-25T09:27:47.156Z,1015.94
2016-10-25T09:28:47.145Z,1015.96
2016-10-25T09:29:47.125Z,1016
2016-10-25T09:30:47.112Z,1016.03
2016-10-25T09:31:47.089Z,1016.06
2016-10-25T09:32:47.074Z,1016.04
2016-10-25T09:33:47.057Z,1016.06
2016-10-25T09:34:47.040Z,1016.07
2016-10-25T09:35:47.024Z,1016.06
2016-10-25T09:36:47.009Z,1016.11
2016-10-25T09:37:46.990Z,1016.09
2016-10-25T09:38:46.973Z,1016.09
2016-10-25T09:39:46.961Z,1016.11
2016-10-25T09:40:46.943Z,1016.15
2016-10-25T09:41:46.927Z,1016.13
2016-10-25T09:42:46.908Z,1016.18
2016-10-25T09:43:46.895Z,1016.16
2016-10-25T09:44:46.876Z,1016.15
2016-10-25T09:45:46.856Z,1016.19
2016-10-25T09:46:46.847Z,1016.2
2016-10-25T09:47:46.829Z,1016.21
2016-10-25T09:48:46.821Z,1016.16
2016-10-25T09:49:46.793Z,1016.19
2016-10-25T09:50:46.778Z,1016.21
2016-10-25T09:51:46.761Z,1016.23
2016-10-25T09:52:46.744Z,1016.21
2016-10-25T09:53:46.726Z,1016.22
2016-10-25T09:54:46.713Z,1016.21
2016-10-25T09:55:46.696Z,1016.19
2016-10-25T09:56:46.678Z,1016.22
2016-10-25T09:57:46.661Z,1016.21
2016-10-25T09:58:46.651Z,1016.19
2016-10-25T09:59:46.629Z,1016.24
2016-10-25T10:00:46.613Z,1016.2
2016-10-25T10:01:46.595Z,1016.2
2016-10-25T10:02:46.586Z,1016.23
2016-10-25T10:03:46.564Z,1016.23
2016-10-25T10:04:46.548Z,1016.25
2016-10-25T10:05:46.532Z,1016.24
2016-10-25T10:06:46.514Z,1016.32
2016-10-25T10:07:46.501Z,1016.32
2016-10-25T10:08:46.482Z,1016.31
2016-10-25T10:09:46.467Z,1016.37
2016-10-25T10:10:46.450Z,1016.37
2016-10-25T10:11:46.432Z,1016.42
2016-10-25T10:12:46.417Z,1016.47
2016-10-25T10:13:46.400Z,1016.49
2016-10-25T10:14:46.383Z,1016.51
2016-10-25T10:15:46.367Z,1016.51
2016-10-25T10:16:46.351Z,1016.52
2016-10-25T10:17:46.333Z,1016.5
2016-10-25T10:18:46.322Z,1016.53
2016-10-25T10:19:46.301Z,1016.53
2016-10-25T10:20:46.285Z,1016.55
2016-10-25T10:21:46.266Z,1016.57
2016-10-25T10:22:46.249Z,1016.56
2016-10-25T10:23:46.234Z,1016.56
2016-10-25T10:24:46.218Z,1016.52
2016-10-25T10:25:46.201Z,1016.53
2016-10-25T10:26:46.186Z,1016.55
2016-10-25T10:27:46.173Z,1016.54
2016-10-25T10:28:46.152Z,1016.57
2016-10-25T10:29:46.136Z,1016.59
2016-10-25T10:30:46.120Z,1016.58
2016-10-25T10:31:46.102Z,1016.69
2016-10-25T10:32:46.087Z,1016.64
2016-10-25T10:33:46.070Z,1016.7
2016-10-25T10:34:46.054Z,1016.69
2016-10-25T10:35:46.035Z,1016.74
2016-10-25T10:36:46.022Z,1016.77
2016-10-25T10:37:46.001Z,1016.77
2016-10-25T10:38:45.987Z,1016.84
2016-10-25T10:39:45.970Z,1016.83
2016-10-25T10:40:45.951Z,1016.84
2016-10-25T10:41:45.941Z,1016.83
2016-10-25T10:42:45.921Z,1016.86
2016-10-25T10:43:45.905Z,1016.82
2016-10-25T10:44:45.888Z,1016.84
2016-10-25T10:45:45.873Z,1016.85
2016-10-25T10:46:45.856Z,1016.85
2016-10-25T10:47:45.838Z,1016.88
2016-10-25T10:48:45.821Z,1016.91
2016-10-25T10:49:45.804Z,1016.97
2016-10-25T10:50:45.789Z,1016.91
2016-10-25T10:51:45.770Z,1016.92
2016-10-25T10:52:45.760Z,1016.96
2016-10-25T10:53:45.739Z,1016.99
2016-10-25T10:54:45.722Z,1016.99
2016-10-25T10:55:45.707Z,1016.96
2016-10-25T10:56:45.694Z,1017.03
2016-10-25T10:57:45.674Z,1017.01
2016-10-25T10:58:45.657Z,1017.04
2016-10-25T10:59:45.639Z,1017.05
2016-10-25T11:00:45.627Z,1017.05
2016-10-25T11:01:45.607Z,1017.04
2016-10-25T11:02:45.590Z,1017.01
2016-10-25T11:03:45.577Z,1017.05
2016-10-25T11:04:45.558Z,1017.03
2016-10-25T11:05:45.545Z,1017.03
2016-10-25T11:06:45.523Z,1017.04
2016-10-25T11:07:45.508Z,1017.05
2016-10-25T11:08:45.491Z,1017.06
2016-10-25T11:09:45.474Z,1017.04
2016-10-25T11:10:45.459Z,1017.05
2016-10-25T11:11:45.439Z,1017.06
2016-10-25T11:12:45.424Z,1017.04
2016-10-25T11:13:45.409Z,1017.06
2016-10-25T11:14:45.396Z,1017.08
2016-10-25T11:15:45.377Z,1017.09
2016-10-25T11:16:45.359Z,1017.06
2016-10-25T11:17:45.342Z,1017.09
2016-10-25T11:18:45.327Z,1017.11
2016-10-25T11:19:45.310Z,1017.14
2016-10-25T11:20:45.290Z,1017.1
2016-10-25T11:21:45.273Z,1017.13
2016-10-25T11:22:45.260Z,1017.16
2016-10-25T11:23:45.245Z,1017.2
2016-10-25T11:24:45.225Z,1017.2
2016-10-25T11:25:45.215Z,1017.17
2016-10-25T11:26:45.193Z,1017.15
2016-10-25T11:27:45.176Z,1017.17
2016-10-25T11:28:45.160Z,1017.13
2016-10-25T11:29:45.143Z,1017.19
2016-10-25T11:30:45.126Z,1017.17
2016-10-25T11:31:45.111Z,1017.17
2016-10-25T11:32:45.096Z,1017.17
2016-10-25T11:33:45.084Z,1017.24
2016-10-25T11:34:45.059Z,1017.19
2016-10-25T11:35:45.044Z,1017.19
2016-10-25T11:36:45.034Z,1017.22
2016-10-25T11:37:45.011Z,1017.23
2016-10-25T11:38:44.994Z,1017.2
2016-10-25T11:39:44.977Z,1017.2
2016-10-25T11:40:44.964Z,1017.31
2016-10-25T11:41:44.948Z,1017.31
2016-10-25T11:42:44.926Z,1017.3
2016-10-25T11:43:44.914Z,1017.36
2016-10-25T11:44:44.895Z,1017.34
2016-10-25T11:45:44.886Z,1017.41
2016-10-25T11:46:44.863Z,1017.39
2016-10-25T11:47:44.846Z,1017.43
2016-10-25T11:48:44.830Z,1017.42
2016-10-25T11:49:44.814Z,1017.44
2016-10-25T11:50:44.796Z,1017.42
2016-10-25T11:51:44.779Z,1017.44
2016-10-25T11:52:44.762Z,1017.43
2016-10-25T11:53:44.744Z,1017.41
2016-10-25T11:54:44.729Z,1017.42
2016-10-25T11:55:44.711Z,1017.39
2016-10-25T11:56:44.696Z,1017.37
2016-10-25T11:57:44.679Z,1017.41
2016-10-25T11:58:44.660Z,1017.36
2016-10-25T11:59:44.647Z,1017.37
2016-10-25T12:00:44.630Z,1017.43
2016-10-25T12:01:44.612Z,1017.39
2016-10-25T12:02:44.599Z,1017.45
2016-10-25T12:03:44.581Z,1017.39
2016-10-25T12:04:44.563Z,1017.42
2016-10-25T12:05:44.546Z,1017.44
2016-10-25T12:06:44.529Z,1017.4
2016-10-25T12:07:44.513Z,1017.39
2016-10-25T12:08:44.496Z,1017.39